Time;durP1;ratioP1;P1;durP2;ratioP2;P2;SDS_P1;SDS_P2;PMS_P1;PMS_P2;Temp;Humidity;BMP_temperature;BMP_pressure;BME280_temperature;BME280_humidity;BME280_pressure;Samples;Min_cycle;Max_cycle;Signal;HPM_P1;HPM_P2
2022/06/15 00:00:52;;;;;;;11.88;7.50;;;15.30;99.90;;;;;;4807709;29;20058;-58
2022/06/15 00:03:18;;;;;;;10.65;7.28;;;15.30;99.90;;;;;;4823486;29;20058;-60
2022/06/15 00:05:44;;;;;;;11.77;7.13;;;15.30;99.90;;;;;;4807574;29;20561;-58
2022/06/15 00:08:10;;;;;;;13.95;7.45;;;15.20;99.90;;;;;;4807294;29;20065;-60
2022/06/15 00:10:37;;;;;;;13.77;7.70;;;15.20;99.90;;;;;;4807513;29;20046;-58
2022/06/15 00:13:03;;;;;;;9.82;7.18;;;15.20;99.90;;;;;;4792007;29;20050;-60
2022/06/15 00:15:29;;;;;;;15.82;7.70;;;15.10;99.90;;;;;;4823745;29;20446;-60
2022/06/15 00:17:54;;;;;;;13.27;7.30;;;15.10;99.90;;;;;;4807353;29;20062;-61
2022/06/15 00:20:20;;;;;;;10.55;7.13;;;15.10;99.90;;;;;;4806756;29;20048;-60
2022/06/15 00:22:46;;;;;;;10.63;7.20;;;15.00;99.90;;;;;;4806924;29;20114;-60
2022/06/15 00:25:13;;;;;;;11.90;7.18;;;15.00;99.90;;;;;;4807095;29;20123;-60
2022/06/15 00:27:38;;;;;;;9.10;6.72;;;14.90;99.90;;;;;;4823578;29;20533;-60
2022/06/15 00:30:06;;;;;;;12.65;6.85;;;14.90;99.90;;;;;;4823200;29;20090;-60
2022/06/15 00:32:32;;;;;;;10.30;6.50;;;14.90;99.90;;;;;;4806963;29;20069;-60
2022/06/15 00:34:57;;;;;;;9.35;6.63;;;14.90;99.90;;;;;;4823187;29;20058;-62
2022/06/15 00:37:23;;;;;;;10.48;7.20;;;14.90;99.90;;;;;;4806875;29;20058;-60
2022/06/15 00:39:49;;;;;;;11.52;6.80;;;14.90;99.90;;;;;;4792140;29;20054;-59
2022/06/15 00:42:15;;;;;;;12.07;6.97;;;14.80;99.90;;;;;;4822695;29;20053;-60
2022/06/15 00:44:44;;;;;;;11.80;7.35;;;14.80;99.90;;;;;;4823107;29;20051;-60
2022/06/15 00:47:11;;;;;;;9.40;5.88;;;14.80;99.90;;;;;;4821758;29;20057;-60
2022/06/15 00:49:47;;;;;;;9.25;6.18;;;14.70;99.90;;;;;;4791964;29;20417;-60
2022/06/15 00:52:17;;;;;;;11.35;6.20;;;14.60;99.90;;;;;;4806610;29;20049;-59
2022/06/15 00:54:46;;;;;;;14.32;6.25;;;14.60;99.90;;;;;;4806987;29;20050;-60
2022/06/15 00:57:13;;;;;;;32.00;6.10;;;14.60;99.90;;;;;;4806293;29;20141;-59
2022/06/15 00:59:50;;;;;;;10.82;6.05;;;14.60;99.90;;;;;;4823128;29;20054;-60
2022/06/15 01:02:15;;;;;;;11.57;6.15;;;14.60;99.90;;;;;;4792089;29;20047;-60
2022/06/15 01:04:59;;;;;;;9.98;5.75;;;14.50;99.90;;;;;;4791464;29;20062;-60
2022/06/15 01:07:46;;;;;;;9.65;5.78;;;14.50;99.90;;;;;;4806413;29;20386;-60
2022/06/15 01:10:28;;;;;;;9.73;5.63;;;14.50;99.90;;;;;;4806270;29;20050;-60
2022/06/15 01:13:21;;;;;;;9.05;5.32;;;14.40;99.90;;;;;;4806527;29;20393;-60
2022/06/15 01:15:59;;;;;;;9.65;4.97;;;14.50;99.90;;;;;;4822786;29;20054;-60
2022/06/15 01:18:45;;;;;;;8.73;5.13;;;14.50;99.90;;;;;;4806115;29;20050;-60
2022/06/15 01:21:17;;;;;;;11.23;5.60;;;14.40;99.90;;;;;;4805981;29;20085;-60
2022/06/15 01:23:55;;;;;;;11.43;5.72;;;14.40;99.90;;;;;;4806039;29;20497;-60
2022/06/15 01:26:58;;;;;;;8.45;5.25;;;14.30;99.90;;;;;;4806231;29;20063;-60
2022/06/15 01:29:45;;;;;;;9.57;5.18;;;14.30;99.90;;;;;;4806122;29;20057;-60
2022/06/15 01:32:33;;;;;;;9.63;5.18;;;14.20;99.90;;;;;;4805936;29;20058;-60
2022/06/15 01:35:11;;;;;;;9.25;4.68;;;14.20;99.90;;;;;;4805958;29;20088;-60
2022/06/15 01:38:20;;;;;;;9.48;5.45;;;14.20;99.90;;;;;;4806424;29;20069;-60
2022/06/15 01:41:19;;;;;;;9.90;5.18;;;14.20;99.90;;;;;;4822601;29;20122;-60
2022/06/15 01:44:05;;;;;;;8.75;5.20;;;14.20;99.90;;;;;;4806285;29;20497;-60
2022/06/15 01:46:32;;;;;;;8.98;5.45;;;14.10;99.90;;;;;;4822062;29;20042;-59
2022/06/15 01:48:59;;;;;;;7.65;5.20;;;14.10;99.90;;;;;;4791253;29;20058;-60
2022/06/15 01:51:38;;;;;;;8.15;5.28;;;14.10;99.90;;;;;;4805879;29;20460;-60
2022/06/15 01:54:09;;;;;;;8.48;5.10;;;14.00;99.90;;;;;;4807883;29;20073;-59
2022/06/15 01:56:43;;;;;;;8.90;5.72;;;14.00;99.90;;;;;;4809771;29;20054;-60
2022/06/15 01:59:19;;;;;;;7.45;4.88;;;14.00;99.90;;;;;;4808729;29;20497;-64
2022/06/15 02:02:01;;;;;;;7.32;5.10;;;13.90;99.90;;;;;;4825637;29;20093;-59
2022/06/15 02:04:30;;;;;;;9.77;5.38;;;13.90;99.90;;;;;;4825319;29;20149;-59
2022/06/15 02:07:04;;;;;;;9.38;5.57;;;13.80;99.90;;;;;;4825674;29;20050;-61
2022/06/15 02:09:48;;;;;;;7.68;4.72;;;13.80;99.90;;;;;;4824451;29;20046;-61
2022/06/15 02:12:19;;;;;;;9.90;5.10;;;13.70;99.90;;;;;;4809118;29;20147;-60
2022/06/15 02:14:50;;;;;;;8.15;5.72;;;13.70;99.90;;;;;;4825453;29;20038;-59
2022/06/15 02:17:24;;;;;;;8.50;5.45;;;13.60;99.90;;;;;;4809047;29;20054;-60
2022/06/15 02:19:57;;;;;;;10.05;5.38;;;13.60;99.90;;;;;;4825304;29;20458;-60
2022/06/15 02:22:28;;;;;;;8.13;5.03;;;13.70;99.90;;;;;;4824561;29;20501;-60
2022/06/15 02:24:57;;;;;;;10.85;5.57;;;13.60;99.90;;;;;;4825188;29;20053;-63
2022/06/15 02:27:26;;;;;;;11.00;5.25;;;13.60;99.90;;;;;;4824854;29;20046;-62
2022/06/15 02:29:55;;;;;;;9.45;5.57;;;13.50;99.90;;;;;;4809207;29;20455;-61
2022/06/15 02:32:23;;;;;;;11.13;5.28;;;13.50;99.90;;;;;;4824790;29;20129;-61
2022/06/15 02:34:49;;;;;;;8.43;5.15;;;13.40;99.90;;;;;;4825150;29;20063;-58
2022/06/15 02:37:14;;;;;;;8.80;5.32;;;13.50;99.90;;;;;;4825211;29;20069;-64
2022/06/15 02:39:40;;;;;;;8.18;5.28;;;13.40;99.90;;;;;;4808778;29;20141;-59
2022/06/15 02:42:24;;;;;;;9.98;5.32;;;13.40;99.90;;;;;;4825132;29;20509;-60
2022/06/15 02:44:52;;;;;;;8.65;5.15;;;13.40;99.90;;;;;;4824675;29;20560;-60
2022/06/15 02:47:19;;;;;;;8.07;5.70;;;13.40;99.90;;;;;;4824576;29;20405;-66
2022/06/15 02:49:46;;;;;;;10.05;5.25;;;13.30;99.90;;;;;;4824848;29;20065;-60
2022/06/15 02:52:13;;;;;;;7.85;5.35;;;13.30;99.90;;;;;;4824828;29;20062;-60
2022/06/15 02:54:50;;;;;;;9.63;5.78;;;13.40;99.90;;;;;;4808407;29;20520;-60
2022/06/15 02:57:17;;;;;;;8.68;5.65;;;13.40;99.90;;;;;;4824761;29;20050;-60
2022/06/15 02:59:45;;;;;;;7.82;5.40;;;13.40;99.90;;;;;;4824232;29;20497;-60
2022/06/15 03:02:14;;;;;;;9.27;5.15;;;13.40;99.90;;;;;;4824606;29;20077;-60
2022/06/15 03:04:41;;;;;;;13.02;5.85;;;13.50;99.90;;;;;;4823252;29;20039;-60
2022/06/15 03:07:07;;;;;;;9.77;4.95;;;13.40;99.90;;;;;;4808106;29;20062;-61
2022/06/15 03:09:33;;;;;;;7.78;5.15;;;13.50;99.90;;;;;;4824177;29;20566;-63
2022/06/15 03:11:59;;;;;;;11.52;5.68;;;13.50;99.90;;;;;;4824297;29;20042;-62
2022/06/15 03:14:25;;;;;;;8.43;5.03;;;13.50;99.90;;;;;;4807895;29;20058;-61
2022/06/15 03:16:51;;;;;;;9.07;4.88;;;13.50;99.90;;;;;;4807788;29;20131;-60
2022/06/15 03:19:17;;;;;;;8.15;5.22;;;13.50;99.90;;;;;;4824085;29;20070;-59
2022/06/15 03:21:42;;;;;;;9.07;5.45;;;13.60;99.90;;;;;;4823617;29;20108;-59
2022/06/15 03:24:08;;;;;;;7.85;5.32;;;13.60;99.90;;;;;;4807942;29;20414;-60
2022/06/15 03:26:34;;;;;;;9.68;5.03;;;13.60;99.90;;;;;;4807708;29;20464;-61
2022/06/15 03:29:00;;;;;;;8.52;4.55;;;13.60;99.90;;;;;;4807849;29;20059;-60
2022/06/15 03:31:29;;;;;;;11.38;5.25;;;13.60;99.90;;;;;;4823592;29;20054;-61
2022/06/15 03:33:55;;;;;;;7.57;5.25;;;13.60;99.90;;;;;;4793100;29;20500;-61
2022/06/15 03:36:21;;;;;;;9.95;5.40;;;13.70;99.90;;;;;;4824159;29;20182;-60
2022/06/15 03:38:46;;;;;;;9.98;5.45;;;13.60;99.90;;;;;;4807663;29;20051;-60
2022/06/15 03:41:13;;;;;;;8.93;5.43;;;13.60;99.90;;;;;;4792835;29;20414;-60
2022/06/15 03:43:39;;;;;;;7.97;4.70;;;13.60;99.90;;;;;;4807494;29;20110;-59
2022/06/15 03:46:04;;;;;;;10.40;5.00;;;13.60;99.90;;;;;;4807929;29;20550;-60
2022/06/15 03:48:30;;;;;;;13.10;4.93;;;13.60;99.90;;;;;;4823243;29;20062;-61
2022/06/15 03:50:56;;;;;;;9.57;4.53;;;13.60;99.90;;;;;;4824046;29;20145;-60
2022/06/15 03:53:22;;;;;;;8.70;5.40;;;13.70;99.90;;;;;;4823826;29;20047;-60
2022/06/15 03:55:48;;;;;;;12.68;4.88;;;13.70;99.90;;;;;;4823387;29;20627;-59
2022/06/15 03:58:15;;;;;;;7.95;4.35;;;13.70;99.90;;;;;;4807664;29;20053;-60
2022/06/15 04:00:41;;;;;;;8.05;4.80;;;13.70;99.90;;;;;;4823451;29;20069;-60
2022/06/15 04:03:07;;;;;;;9.05;4.45;;;13.70;99.90;;;;;;4823618;29;20055;-60
2022/06/15 04:05:36;;;;;;;9.68;4.75;;;13.70;99.90;;;;;;4823312;29;20058;-59
2022/06/15 04:10:46;;;;;;;;;;;13.70;99.90;;;;;;4823354;29;20058;-59
2022/06/15 04:13:14;;;;;;;8.75;5.03;;;13.80;99.90;;;;;;4823676;29;19925;-60
2022/06/15 04:15:40;;;;;;;8.30;4.60;;;13.80;99.90;;;;;;4823164;29;20060;-60
2022/06/15 04:18:06;;;;;;;7.53;4.78;;;13.80;99.90;;;;;;4823146;29;20503;-60
2022/06/15 04:20:31;;;;;;;10.20;4.90;;;13.80;99.90;;;;;;4806800;29;20050;-60
2022/06/15 04:23:11;;;;;;;7.07;4.57;;;13.80;99.90;;;;;;4806812;29;20067;-60
2022/06/15 04:25:44;;;;;;;8.43;4.75;;;13.80;99.90;;;;;;4806481;29;20058;-59
2022/06/15 04:28:13;;;;;;;8.40;4.40;;;13.80;99.90;;;;;;4823233;29;20110;-60
2022/06/15 04:30:39;;;;;;;7.80;4.60;;;13.80;99.90;;;;;;4822913;29;20137;-60
2022/06/15 04:33:05;;;;;;;6.43;4.25;;;13.80;99.90;;;;;;4823117;29;20038;-60
2022/06/15 04:35:31;;;;;;;6.65;4.88;;;13.90;99.90;;;;;;4806359;29;20087;-66
2022/06/15 04:37:57;;;;;;;7.50;4.25;;;13.90;99.90;;;;;;4806837;29;20053;-61
2022/06/15 04:40:22;;;;;;;7.65;4.82;;;13.90;99.90;;;;;;4823180;29;20485;-61
2022/06/15 04:42:48;;;;;;;9.52;4.97;;;13.90;99.90;;;;;;4822691;29;20114;-60
2022/06/15 04:45:15;;;;;;;6.47;4.93;;;13.90;99.90;;;;;;4823200;29;20417;-62
2022/06/15 04:47:41;;;;;;;8.15;5.13;;;13.80;99.90;;;;;;4806191;29;20058;-60
2022/06/15 04:50:08;;;;;;;8.23;4.82;;;13.80;99.90;;;;;;4823121;29;20412;-61
2022/06/15 04:52:35;;;;;;;8.07;5.10;;;13.80;99.90;;;;;;4806589;29;20058;-66
2022/06/15 04:55:00;;;;;;;9.93;5.00;;;13.80;99.90;;;;;;4806596;29;20405;-61
2022/06/15 04:57:26;;;;;;;11.27;5.70;;;13.80;99.90;;;;;;4791458;29;20046;-61
2022/06/15 04:59:52;;;;;;;8.18;5.45;;;13.90;99.90;;;;;;4822702;29;20261;-61
2022/06/15 05:02:17;;;;;;;7.80;5.00;;;14.00;99.90;;;;;;4822638;29;20054;-60
2022/06/15 05:04:43;;;;;;;7.40;5.43;;;14.00;99.90;;;;;;4790870;29;20051;-60
2022/06/15 05:07:09;;;;;;;9.15;5.28;;;14.00;99.90;;;;;;4822624;29;20054;-60
2022/06/15 05:09:35;;;;;;;10.60;5.50;;;14.10;99.90;;;;;;4806420;29;20099;-66
2022/06/15 05:12:00;;;;;;;8.45;4.78;;;14.20;99.90;;;;;;4806358;29;20050;-61
2022/06/15 05:14:26;;;;;;;8.38;5.05;;;14.20;99.90;;;;;;4822794;29;20054;-60
2022/06/15 05:16:52;;;;;;;8.07;5.10;;;14.30;99.90;;;;;;4822229;29;20050;-60
2022/06/15 05:19:19;;;;;;;7.20;4.80;;;14.40;99.90;;;;;;4822337;29;20066;-62
2022/06/15 05:21:45;;;;;;;8.48;5.10;;;14.40;99.90;;;;;;4805705;29;20050;-59
2022/06/15 05:24:13;;;;;;;9.75;5.30;;;14.50;99.90;;;;;;4822436;29;20050;-60
2022/06/15 05:26:39;;;;;;;8.13;5.05;;;14.60;99.90;;;;;;4805964;29;20085;-66
2022/06/15 05:29:05;;;;;;;9.48;5.43;;;14.70;99.90;;;;;;4821784;29;20090;-60
2022/06/15 05:31:31;;;;;;;9.48;5.10;;;14.90;99.90;;;;;;4806187;29;20064;-60
2022/06/15 05:33:58;;;;;;;9.10;4.43;;;15.00;99.90;;;;;;4822214;29;20126;-60
2022/06/15 05:36:30;;;;;;;8.75;5.22;;;15.10;99.90;;;;;;4822515;29;20129;-63
2022/06/15 05:38:56;;;;;;;7.95;4.95;;;15.10;99.90;;;;;;4822248;29;20524;-62
2022/06/15 05:41:22;;;;;;;11.32;4.90;;;15.60;99.90;;;;;;4822601;29;20052;-60
2022/06/15 05:43:49;;;;;;;6.43;4.15;;;16.30;99.90;;;;;;4805763;29;20545;-63
2022/06/15 05:46:30;;;;;;;7.75;3.95;;;17.40;99.90;;;;;;4822431;29;20058;-62
2022/06/15 05:48:57;;;;;;;7.72;3.90;;;18.80;99.90;;;;;;4805679;29;20087;-61
2022/06/15 05:51:23;;;;;;;6.05;3.83;;;19.80;99.90;;;;;;4822210;29;20520;-61
2022/06/15 05:53:50;;;;;;;5.90;3.38;;;20.80;99.90;;;;;;4822045;29;20051;-62
2022/06/15 05:56:16;;;;;;;4.88;3.13;;;21.60;99.90;;;;;;4822106;29;20054;-62
2022/06/15 05:58:42;;;;;;;7.90;3.28;;;22.30;99.90;;;;;;4821922;29;20452;-68
2022/06/15 06:01:25;;;;;;;5.75;2.97;;;22.90;99.90;;;;;;4822267;29;20137;-62
2022/06/15 06:03:51;;;;;;;5.72;3.05;;;23.40;99.90;;;;;;4790696;29;20434;-61
2022/06/15 06:06:17;;;;;;;5.82;3.40;;;23.50;99.90;;;;;;4822104;29;20136;-63
2022/06/15 06:08:43;;;;;;;6.45;2.92;;;23.20;99.70;;;;;;4821845;29;20157;-67
2022/06/15 06:11:09;;;;;;;7.22;3.38;;;22.70;99.30;;;;;;4822052;29;20085;-61
2022/06/15 06:13:35;;;;;;;7.68;3.13;;;21.90;99.70;;;;;;4822271;29;20047;-61
2022/06/15 06:16:00;;;;;;;5.15;2.80;;;21.60;99.70;;;;;;4822016;29;20050;-63
2022/06/15 06:18:26;;;;;;;5.93;2.92;;;22.50;98.90;;;;;;4821880;29;20058;-61
2022/06/15 06:20:52;;;;;;;5.80;3.08;;;23.40;97.80;;;;;;4821705;29;20186;-61
2022/06/15 06:23:19;;;;;;;6.68;2.92;;;24.20;96.60;;;;;;4822003;29;20058;-60
2022/06/15 06:25:50;;;;;;;5.82;3.35;;;24.70;97.50;;;;;;4790680;29;20051;-66
2022/06/15 06:28:35;;;;;;;5.47;3.00;;;25.00;96.40;;;;;;4822098;29;20054;-61
2022/06/15 06:31:03;;;;;;;7.10;3.25;;;25.40;94.20;;;;;;4821667;29;20133;-63
2022/06/15 06:33:31;;;;;;;8.95;3.17;;;25.70;95.00;;;;;;4805395;29;20493;-61
2022/06/15 06:35:59;;;;;;;8.88;3.40;;;25.90;95.60;;;;;;4821426;29;20058;-61
2022/06/15 06:38:25;;;;;;;8.60;3.53;;;25.70;93.50;;;;;;4805302;29;20404;-62
2022/06/15 06:40:53;;;;;;;7.10;2.90;;;25.90;92.70;;;;;;4823890;29;20043;-62
2022/06/15 06:43:20;;;;;;;5.43;2.60;;;25.50;92.40;;;;;;4824107;29;20082;-61
2022/06/15 06:45:46;;;;;;;7.57;2.78;;;25.20;93.10;;;;;;4825094;29;20060;-61
2022/06/15 06:48:12;;;;;;;7.55;2.90;;;24.80;93.20;;;;;;4824862;29;20051;-61
2022/06/15 06:50:40;;;;;;;4.80;2.75;;;24.90;93.80;;;;;;4825045;29;20050;-61
2022/06/15 06:53:07;;;;;;;5.72;2.83;;;24.60;94.70;;;;;;4824755;29;20069;-63
2022/06/15 06:55:34;;;;;;;7.82;2.60;;;24.30;95.10;;;;;;4808926;29;20061;-62
2022/06/15 06:58:00;;;;;;;5.18;2.30;;;24.10;94.50;;;;;;4824415;29;20050;-63
2022/06/15 07:00:28;;;;;;;6.05;2.42;;;23.70;95.00;;;;;;4825123;29;20138;-62
2022/06/15 07:02:53;;;;;;;5.60;2.85;;;23.20;94.60;;;;;;4824166;29;20492;-61
2022/06/15 07:05:19;;;;;;;5.32;2.20;;;22.80;95.50;;;;;;4808595;29;20055;-62
2022/06/15 07:07:46;;;;;;;8.20;2.90;;;22.30;95.50;;;;;;4808548;29;20512;-62
2022/06/15 07:10:14;;;;;;;7.68;2.35;;;22.10;96.10;;;;;;4824053;29;20561;-62
2022/06/15 07:12:42;;;;;;;6.65;2.55;;;21.80;96.20;;;;;;4824679;29;20065;-62
2022/06/15 07:15:10;;;;;;;5.07;2.50;;;21.70;96.60;;;;;;4824242;29;20388;-62
2022/06/15 07:17:36;;;;;;;4.22;2.30;;;21.40;96.60;;;;;;4824330;29;20492;-62
2022/06/15 07:20:03;;;;;;;7.60;2.55;;;21.30;96.50;;;;;;4808106;29;20058;-61
2022/06/15 07:22:28;;;;;;;5.72;2.60;;;20.90;96.80;;;;;;4824065;29;20066;-61
2022/06/15 07:24:56;;;;;;;6.47;2.58;;;20.90;97.60;;;;;;4807586;29;20394;-63
2022/06/15 07:27:22;;;;;;;6.85;2.50;;;21.20;97.70;;;;;;4793229;29;20066;-61
2022/06/15 07:29:49;;;;;;;5.32;2.60;;;21.40;97.60;;;;;;4824300;29;20050;-62
2022/06/15 07:32:16;;;;;;;7.45;2.65;;;21.40;97.50;;;;;;4823714;29;20129;-62
2022/06/15 07:34:42;;;;;;;7.20;2.58;;;21.40;98.00;;;;;;4824165;29;20058;-62
2022/06/15 07:37:10;;;;;;;5.10;2.15;;;21.90;98.30;;;;;;4823814;29;20055;-60
2022/06/15 07:39:37;;;;;;;5.82;2.20;;;22.70;97.30;;;;;;4807931;29;20075;-60
2022/06/15 07:42:05;;;;;;;5.90;2.17;;;23.40;95.40;;;;;;4823806;29;20054;-62
2022/06/15 07:44:34;;;;;;;4.53;2.08;;;24.10;95.00;;;;;;4824006;29;20103;-60
2022/06/15 07:49:54;;;;;;;5.15;2.25;;;25.90;92.80;;;;;;4822974;29;20054;-61
2022/06/15 07:52:26;;;;;;;5.07;2.00;;;26.70;91.80;;;;;;4793086;29;20137;-61
2022/06/15 07:54:53;;;;;;;3.47;2.00;;;27.30;91.90;;;;;;4823736;29;20055;-62
2022/06/15 07:57:19;;;;;;;6.93;2.30;;;27.70;93.10;;;;;;4823407;29;20421;-63
2022/06/15 07:59:45;;;;;;;6.70;2.20;;;28.20;90.50;;;;;;4806947;29;20489;-62
2022/06/15 08:02:11;;;;;;;4.00;1.75;;;28.10;88.90;;;;;;4823272;29;20050;-62
2022/06/15 08:04:37;;;;;;;4.50;1.90;;;28.50;89.30;;;;;;4823584;29;20081;-62
2022/06/15 08:07:07;;;;;;;4.47;1.90;;;29.20;90.00;;;;;;4823250;29;20131;-62
2022/06/15 08:09:33;;;;;;;3.92;1.90;;;28.80;86.70;;;;;;4823578;29;20061;-63
2022/06/15 08:12:11;;;;;;;7.10;1.90;;;28.80;85.60;;;;;;4807102;29;20050;-68
2022/06/15 08:14:43;;;;;;;6.13;2.00;;;28.30;84.70;;;;;;4823209;29;20476;-62
2022/06/15 08:17:14;;;;;;;5.18;2.10;;;28.40;86.30;;;;;;4823032;29;20054;-60
2022/06/15 08:19:44;;;;;;;7.00;2.22;;;28.70;88.30;;;;;;4807405;29;20054;-61
2022/06/15 08:22:11;;;;;;;5.30;1.80;;;28.80;86.50;;;;;;4806633;29;20063;-62
2022/06/15 08:24:38;;;;;;;4.35;2.08;;;27.80;85.60;;;;;;4822983;29;20057;-60
2022/06/15 08:27:05;;;;;;;4.10;1.90;;;26.90;85.30;;;;;;4822648;29;20096;-61
2022/06/15 08:29:33;;;;;;;7.55;2.38;;;26.00;86.80;;;;;;4823538;29;20481;-61
2022/06/15 08:31:59;;;;;;;3.88;1.98;;;25.10;87.30;;;;;;4823282;29;20061;-60
2022/06/15 08:34:28;;;;;;;5.78;2.17;;;24.60;89.60;;;;;;4822977;29;20050;-61
2022/06/15 08:36:54;;;;;;;6.78;2.45;;;24.20;90.00;;;;;;4823081;29;20058;-61
2022/06/15 08:39:20;;;;;;;5.22;1.95;;;24.00;90.10;;;;;;4818304;29;20061;-67
2022/06/15 08:41:56;;;;;;;5.22;2.15;;;23.80;90.30;;;;;;4819931;29;20058;-61
2022/06/15 08:44:21;;;;;;;4.22;1.98;;;23.70;90.50;;;;;;4821870;29;20057;-60
2022/06/15 08:46:57;;;;;;;5.97;2.28;;;23.80;90.70;;;;;;4821915;29;20050;-61
2022/06/15 08:49:56;;;;;;;6.40;2.30;;;24.40;90.80;;;;;;4819543;29;20082;-61
2022/06/15 08:52:33;;;;;;;5.05;2.30;;;25.10;89.30;;;;;;4797833;29;20058;-64
2022/06/15 08:55:06;;;;;;;4.93;2.10;;;25.30;89.40;;;;;;4821123;29;20051;-63
2022/06/15 08:57:49;;;;;;;4.55;1.70;;;25.20;88.00;;;;;;4821794;29;20053;-63
2022/06/15 09:00:25;;;;;;;5.82;1.77;;;25.10;88.20;;;;;;4804759;29;20054;-62
2022/06/15 09:02:57;;;;;;;3.75;1.70;;;25.60;90.40;;;;;;4820361;29;20061;-62
2022/06/15 09:06:06;;;;;;;5.30;1.98;;;26.50;90.30;;;;;;4820564;29;20631;-62
2022/06/15 09:08:56;;;;;;;5.78;2.35;;;27.40;88.60;;;;;;4805201;29;20050;-62
2022/06/15 09:11:48;;;;;;;4.63;1.90;;;27.30;87.80;;;;;;4821195;29;20046;-61
2022/06/15 09:14:23;;;;;;;4.60;2.00;;;26.70;88.60;;;;;;4820503;29;20057;-62
2022/06/15 09:16:51;;;;;;;6.30;1.70;;;26.20;88.00;;;;;;4789878;29;20059;-61
2022/06/15 09:19:25;;;;;;;4.07;1.70;;;25.70;87.90;;;;;;4821414;29;20058;-61
2022/06/15 09:22:04;;;;;;;5.15;1.80;;;25.20;88.60;;;;;;4804901;29;20058;-61
2022/06/15 09:24:35;;;;;;;4.20;1.92;;;25.00;89.00;;;;;;4804327;29;20050;-64
2022/06/15 09:27:06;;;;;;;4.68;1.80;;;24.60;89.50;;;;;;4821523;29;20054;-61
2022/06/15 09:29:45;;;;;;;5.55;2.03;;;24.50;89.60;;;;;;4822333;29;20050;-61
2022/06/15 09:32:23;;;;;;;5.03;2.00;;;24.40;90.30;;;;;;4821978;29;20057;-63
2022/06/15 09:34:57;;;;;;;5.68;1.83;;;24.80;89.30;;;;;;4806238;29;20054;-61
2022/06/15 09:37:28;;;;;;;4.15;1.70;;;24.90;88.70;;;;;;4821857;29;20042;-60
2022/06/15 09:39:54;;;;;;;6.30;1.80;;;24.90;89.20;;;;;;4805993;29;20580;-62
2022/06/15 09:42:36;;;;;;;5.05;1.73;;;25.00;89.80;;;;;;4805520;29;20196;-62
2022/06/15 09:45:12;;;;;;;5.68;1.85;;;25.20;88.90;;;;;;4805675;29;20401;-61
2022/06/15 09:48:02;;;;;;;5.20;1.80;;;25.50;88.60;;;;;;4822156;29;20050;-62
2022/06/15 09:50:45;;;;;;;4.20;1.80;;;25.20;87.40;;;;;;4821759;29;20421;-64
2022/06/15 09:53:26;;;;;;;4.97;2.03;;;24.90;88.10;;;;;;4821939;29;20051;-68
2022/06/15 09:56:06;;;;;;;3.70;1.70;;;25.20;88.00;;;;;;4821837;29;20064;-61
2022/06/15 09:58:47;;;;;;;4.45;1.80;;;25.50;88.60;;;;;;4821398;29;20410;-61
2022/06/15 10:01:14;;;;;;;3.22;1.65;;;25.50;86.00;;;;;;4821945;29;20050;-66
2022/06/15 10:03:44;;;;;;;5.20;1.80;;;25.50;86.50;;;;;;4805720;29;20050;-62
2022/06/15 10:06:22;;;;;;;4.63;1.80;;;25.30;86.00;;;;;;4805624;29;20047;-60
2022/06/15 10:08:48;;;;;;;6.68;2.28;;;25.00;87.10;;;;;;4822082;29;20058;-61
2022/06/15 10:11:24;;;;;;;5.13;1.70;;;25.20;86.60;;;;;;4821796;29;20133;-67
2022/06/15 10:13:50;;;;;;;4.93;1.98;;;25.20;86.60;;;;;;4822098;29;20042;-61
2022/06/15 10:16:31;;;;;;;4.50;1.77;;;25.20;87.10;;;;;;4825012;29;20134;-68
2022/06/15 10:18:59;;;;;;;5.40;1.95;;;25.20;86.70;;;;;;4809300;29;20103;-62
2022/06/15 10:21:30;;;;;;;5.55;1.85;;;25.20;86.10;;;;;;4779408;29;20054;-61
2022/06/15 10:24:12;;;;;;;4.00;2.08;;;25.10;86.60;;;;;;4809077;29;20573;-61
2022/06/15 10:26:44;;;;;;;5.22;1.70;;;24.90;86.70;;;;;;4824928;29;20454;-61
2022/06/15 10:29:18;;;;;;;4.80;2.10;;;25.00;86.50;;;;;;4825387;29;20055;-63
2022/06/15 10:32:08;;;;;;;4.47;1.80;;;25.00;85.10;;;;;;4825159;29;20515;-62
2022/06/15 10:34:51;;;;;;;5.05;1.88;;;24.90;84.50;;;;;;4808898;29;20062;-65
2022/06/15 10:37:40;;;;;;;3.45;1.75;;;24.80;85.00;;;;;;4824942;29;20051;-68
2022/06/15 10:40:34;;;;;;;3.58;1.45;;;24.40;85.80;;;;;;4825218;29;20089;-59
2022/06/15 10:43:16;;;;;;;5.88;2.35;;;24.20;86.70;;;;;;4800206;29;20520;-62
2022/06/15 10:46:00;;;;;;;4.63;2.20;;;24.20;86.60;;;;;;4824698;29;20125;-65
2022/06/15 10:48:35;;;;;;;;;;;24.10;86.70;;;;;;4825102;29;20050;-62
2022/06/15 10:51:28;;;;;;;6.45;2.50;;;23.90;87.30;;;;;;4823721;29;19924;-62
2022/06/15 10:54:22;;;;;;;4.53;2.13;;;23.60;87.00;;;;;;4825021;29;20081;-60
2022/06/15 11:02:44;;;;;;;5.63;2.42;;;23.40;88.50;;;;;;4824415;29;20046;-62
2022/06/15 11:05:09;;;;;;;6.75;2.50;;;23.30;90.30;;;;;;4825010;29;20054;-61
2022/06/15 11:07:50;;;;;;;5.93;2.30;;;23.30;90.60;;;;;;4824471;29;20051;-61
2022/06/15 11:10:29;;;;;;;4.72;2.28;;;23.50;90.00;;;;;;4824504;29;20137;-63
2022/06/15 11:13:18;;;;;;;4.70;2.10;;;23.40;89.90;;;;;;4824202;29;20054;-60
2022/06/15 11:18:39;;;;;;;6.70;2.53;;;23.60;90.10;;;;;;4824325;29;20121;-61
2022/06/15 11:21:17;;;;;;;4.90;2.40;;;23.70;89.90;;;;;;4808468;29;20062;-62
2022/06/15 11:24:09;;;;;;;5.28;2.33;;;23.60;89.70;;;;;;4824271;29;20127;-61
2022/06/15 11:26:57;;;;;;;6.13;2.22;;;23.50;90.30;;;;;;4819344;29;20073;-61
2022/06/15 11:29:46;;;;;;;8.18;2.70;;;23.60;90.60;;;;;;4807999;29;20055;-65
2022/06/15 11:32:34;;;;;;;11.55;3.08;;;23.60;89.50;;;;;;4824251;29;20057;-61
2022/06/15 11:35:12;;;;;;;6.75;2.45;;;23.60;89.40;;;;;;4824054;29;20519;-61
2022/06/15 11:37:53;;;;;;;6.43;2.40;;;23.60;90.20;;;;;;4823989;29;20046;-62
2022/06/15 11:40:48;;;;;;;7.82;2.42;;;23.70;90.10;;;;;;4824163;29;20125;-61
2022/06/15 11:43:22;;;;;;;5.57;2.33;;;23.90;89.70;;;;;;4824142;29;20054;-62
2022/06/15 11:46:09;;;;;;;8.35;2.60;;;23.90;89.40;;;;;;4822984;29;20510;-61
2022/06/15 11:48:59;;;;;;;6.15;2.50;;;23.80;88.40;;;;;;4824034;29;20065;-61
2022/06/15 11:51:40;;;;;;;5.90;2.47;;;23.80;89.40;;;;;;4807347;29;20054;-63
2022/06/15 11:54:27;;;;;;;7.72;2.63;;;24.00;89.30;;;;;;4807349;29;20580;-61
2022/06/15 11:57:06;;;;;;;7.95;3.10;;;23.90;87.90;;;;;;4823944;29;20062;-61
2022/06/15 11:59:38;;;;;;;6.78;3.00;;;23.90;88.20;;;;;;4823692;29;20130;-61
2022/06/15 12:02:23;;;;;;;5.90;2.75;;;23.90;87.20;;;;;;4824148;29;20371;-61
2022/06/15 12:05:10;;;;;;;5.53;2.83;;;23.90;88.30;;;;;;4807263;29;20042;-60
2022/06/15 12:08:10;;;;;;;5.43;2.90;;;24.00;87.40;;;;;;4823596;29;20078;-61
2022/06/15 12:12:37;;;;;;;6.38;2.88;;;23.90;86.90;;;;;;4823285;29;20505;-62
2022/06/15 12:14:31;;;;;;;5.53;2.50;;;23.90;86.60;;;;;;4770745;29;20112;-61
2022/06/15 12:17:20;;;;;;;6.82;2.80;;;23.80;86.70;;;;;;4823812;29;20050;-61
2022/06/15 12:19:57;;;;;;;7.90;3.03;;;23.60;85.70;;;;;;4807377;29;20046;-61
2022/06/15 12:22:47;;;;;;;4.57;2.50;;;23.40;86.20;;;;;;4806831;29;20070;-61
2022/06/15 12:25:32;;;;;;;6.80;3.38;;;23.50;86.10;;;;;;4807280;29;20042;-61
2022/06/15 12:28:09;;;;;;;3.95;2.53;;;23.60;86.00;;;;;;4807391;29;20057;-61
2022/06/15 12:31:03;;;;;;;6.47;2.88;;;23.40;85.80;;;;;;4823147;29;20508;-62
2022/06/15 12:33:39;;;;;;;5.53;2.53;;;23.30;85.00;;;;;;4823394;29;20077;-61
2022/06/15 12:36:11;;;;;;;6.18;2.72;;;23.20;85.70;;;;;;4823402;29;20076;-61
2022/06/15 12:38:44;;;;;;;3.88;2.40;;;23.00;85.50;;;;;;4823065;29;20058;-60
2022/06/15 12:44:04;;;;;;;6.00;2.70;;;23.00;85.80;;;;;;4822605;29;20076;-61
2022/06/15 12:46:31;;;;;;;5.00;2.60;;;23.20;86.60;;;;;;4823470;29;20124;-61
2022/06/15 12:49:28;;;;;;;4.80;2.63;;;23.20;85.70;;;;;;4822998;29;20119;-62
2022/06/15 12:52:13;;;;;;;5.90;2.67;;;23.10;86.90;;;;;;4806548;29;20054;-62
2022/06/15 12:55:07;;;;;;;6.72;2.80;;;23.10;85.30;;;;;;4822801;29;20042;-62
2022/06/15 12:58:04;;;;;;;5.22;2.65;;;23.10;87.10;;;;;;4823327;29;20053;-61
2022/06/15 13:00:33;;;;;;;5.78;2.65;;;23.30;85.60;;;;;;4823337;29;20069;-61
2022/06/15 13:03:23;;;;;;;4.88;2.33;;;23.50;86.00;;;;;;4806486;29;20080;-62
2022/06/15 13:05:49;;;;;;;6.13;2.40;;;23.40;86.20;;;;;;4822869;29;20086;-62
2022/06/15 13:08:25;;;;;;;5.53;2.20;;;23.40;85.10;;;;;;4806706;29;20516;-61
2022/06/15 13:10:53;;;;;;;4.55;2.40;;;23.30;85.10;;;;;;4822934;29;20089;-61
2022/06/15 13:13:31;;;;;;;6.18;2.10;;;23.20;85.50;;;;;;4822996;29;20510;-63
2022/06/15 13:16:00;;;;;;;4.30;2.35;;;23.00;85.40;;;;;;4806330;29;20295;-63
2022/06/15 13:18:47;;;;;;;4.70;2.30;;;22.80;85.70;;;;;;4822355;29;20057;-61
2022/06/15 13:21:24;;;;;;;4.65;2.40;;;22.70;85.70;;;;;;4822755;29;20463;-61
2022/06/15 13:24:06;;;;;;;4.40;2.30;;;22.80;85.50;;;;;;4822043;29;20465;-61
2022/06/15 13:26:38;;;;;;;4.53;2.20;;;22.70;84.90;;;;;;4822845;29;20046;-63
2022/06/15 13:29:04;;;;;;;3.75;2.10;;;22.50;85.30;;;;;;4821383;29;20409;-61
2022/06/15 13:31:52;;;;;;;3.72;2.13;;;22.50;84.90;;;;;;4822576;29;20060;-61